createdAt,value
2023-04-15T00:01:45.632Z,30.10
2023-04-15T00:04:13.594Z,29.87
2023-04-15T00:06:41.806Z,29.70
2023-04-15T00:09:09.581Z,27.47
2023-04-15T00:11:37.301Z,28.30
2023-04-15T00:14:06.223Z,29.60
2023-04-15T00:16:35.660Z,30.27
2023-04-15T00:19:03.541Z,30.80
2023-04-15T00:21:31.551Z,31.40
2023-04-15T00:23:59.316Z,29.57
2023-04-15T00:26:27.075Z,32.53
2023-04-15T00:28:54.820Z,31.30
2023-04-15T00:31:23.158Z,32.30
2023-04-15T00:33:52.446Z,31.53
2023-04-15T00:36:20.165Z,30.60
2023-04-15T00:38:48.177Z,30.37
2023-04-15T00:41:16.048Z,30.63
2023-04-15T00:43:44.022Z,30.63
2023-04-15T00:46:15.280Z,32.20
2023-04-15T00:48:43.589Z,31.13
2023-04-15T00:51:13.199Z,31.77
2023-04-15T00:53:41.183Z,31.73
2023-04-15T00:56:09.198Z,32.53
2023-04-15T00:58:37.147Z,31.43
2023-04-15T01:01:05.376Z,32.63
2023-04-15T01:03:33.366Z,33.43
2023-04-15T01:06:04.053Z,33.30
2023-04-15T01:08:33.636Z,31.70
2023-04-15T01:11:03.493Z,32.30
2023-04-15T01:13:32.341Z,31.53
2023-04-15T01:16:00.197Z,34.67
2023-04-15T01:18:28.605Z,33.60
2023-04-15T01:20:56.698Z,32.77
2023-04-15T01:23:24.604Z,33.00
2023-04-15T01:25:54.801Z,34.77
2023-04-15T01:28:22.742Z,33.00
2023-04-15T01:30:50.636Z,33.97
2023-04-15T01:33:18.502Z,32.67
2023-04-15T01:35:46.412Z,34.57
2023-04-15T01:38:14.683Z,31.53
2023-04-15T01:40:42.540Z,29.80
2023-04-15T01:43:11.726Z,31.63
2023-04-15T01:45:39.417Z,33.03
2023-04-15T01:48:08.038Z,34.17
2023-04-15T01:50:36.900Z,33.93
2023-04-15T01:53:04.627Z,32.53
2023-04-15T01:55:32.561Z,33.53
2023-04-15T01:58:00.261Z,32.43
2023-04-15T02:00:29.961Z,32.83
2023-04-15T02:02:57.853Z,33.73
2023-04-15T02:05:25.629Z,32.90
2023-04-15T02:07:53.774Z,32.33
2023-04-15T02:10:21.755Z,32.70
2023-04-15T02:12:49.530Z,34.80
2023-04-15T02:15:17.359Z,35.63
2023-04-15T02:17:50.977Z,35.67
2023-04-15T02:20:21.089Z,34.03
2023-04-15T02:22:49.311Z,37.30
2023-04-15T02:25:17.880Z,34.00
2023-04-15T02:27:45.711Z,33.67
2023-04-15T02:30:13.630Z,32.63
2023-04-15T02:32:43.833Z,35.80
2023-04-15T02:35:13.288Z,35.70
2023-04-15T02:37:43.830Z,35.83
2023-04-15T02:40:13.135Z,36.23
2023-04-15T02:42:41.069Z,37.37
2023-04-15T02:45:09.822Z,37.43
2023-04-15T02:47:37.583Z,37.53
2023-04-15T02:50:05.813Z,38.50
2023-04-15T02:52:34.886Z,37.23
2023-04-15T02:55:04.310Z,36.80
2023-04-15T02:57:32.026Z,37.13
2023-04-15T02:59:59.730Z,36.67
2023-04-15T03:02:27.723Z,36.83
2023-04-15T03:04:56.235Z,36.43
2023-04-15T03:07:23.997Z,36.23
2023-04-15T03:09:53.153Z,37.13
2023-04-15T03:12:21.059Z,35.53
2023-04-15T03:14:48.810Z,33.40
2023-04-15T03:17:16.574Z,35.43
2023-04-15T03:19:45.300Z,33.93
2023-04-15T03:22:13.025Z,34.47
2023-04-15T03:24:40.915Z,33.17
2023-04-15T03:27:09.963Z,34.27
2023-04-15T03:29:37.685Z,33.83
2023-04-15T03:32:05.793Z,33.87
2023-04-15T03:34:33.500Z,33.10
2023-04-15T03:37:01.418Z,31.30
2023-04-15T03:39:29.147Z,29.87
2023-04-15T03:41:56.877Z,29.80
2023-04-15T03:44:27.002Z,29.63
2023-04-15T03:46:54.872Z,30.87
2023-04-15T03:49:23.246Z,29.20
2023-04-15T03:51:51.088Z,30.10
2023-04-15T03:54:18.783Z,28.63
2023-04-15T03:56:46.585Z,29.67
2023-04-15T03:59:14.291Z,29.90
2023-04-15T04:01:43.439Z,27.87
2023-04-15T04:04:11.773Z,33.60
2023-04-15T04:06:39.633Z,26.40
2023-04-15T04:09:07.414Z,25.53
2023-04-15T04:11:35.274Z,27.87
2023-04-15T04:14:03.010Z,29.83
2023-04-15T04:16:31.031Z,30.00
2023-04-15T04:19:00.403Z,31.83
2023-04-15T04:21:28.704Z,29.60
2023-04-15T04:23:56.822Z,30.23
2023-04-15T04:26:24.572Z,31.70
2023-04-15T04:28:52.274Z,29.53
2023-04-15T04:31:20.118Z,30.30
2023-04-15T04:33:47.886Z,28.80
2023-04-15T04:36:17.053Z,30.90
2023-04-15T04:38:44.761Z,31.30
2023-04-15T04:41:12.521Z,30.53
2023-04-15T04:43:40.210Z,30.13
2023-04-15T04:46:07.996Z,31.13
2023-04-15T04:48:35.867Z,29.00
2023-04-15T04:51:03.673Z,29.30
2023-04-15T04:53:32.760Z,28.47
2023-04-15T04:56:00.818Z,27.30
2023-04-15T04:58:28.543Z,28.13
2023-04-15T05:00:56.733Z,27.50
2023-04-15T05:03:24.631Z,28.00
2023-04-15T05:05:52.905Z,26.37
2023-04-15T05:08:20.710Z,25.83
2023-04-15T05:10:49.842Z,25.47
2023-04-15T05:13:17.554Z,26.70
2023-04-15T05:15:45.466Z,26.07
2023-04-15T05:18:13.217Z,24.17
2023-04-15T05:20:40.928Z,25.83
2023-04-15T05:23:09.072Z,25.63
2023-04-15T05:25:37.183Z,24.13
2023-04-15T05:28:06.578Z,25.30
2023-04-15T05:30:34.376Z,25.07
2023-04-15T05:33:02.205Z,24.77
2023-04-15T05:35:29.990Z,24.37
2023-04-15T05:37:57.703Z,25.47
2023-04-15T05:40:25.447Z,23.17
2023-04-15T05:42:53.261Z,23.40
2023-04-15T05:45:22.416Z,23.77
2023-04-15T05:47:50.963Z,23.53
2023-04-15T05:50:18.856Z,22.97
2023-04-15T05:52:46.881Z,22.73
2023-04-15T05:55:15.244Z,23.20
2023-04-15T05:57:42.955Z,20.83
2023-04-15T06:00:11.854Z,20.73
2023-04-15T06:02:41.187Z,21.30
2023-04-15T06:05:10.006Z,18.70
2023-04-15T06:07:38.130Z,20.53
2023-04-15T06:10:07.280Z,20.37
2023-04-15T06:12:35.160Z,20.77
2023-04-15T06:15:03.957Z,17.80
2023-04-15T06:17:31.710Z,17.70
2023-04-15T06:20:00.778Z,16.50
2023-04-15T06:22:28.517Z,15.87
2023-04-15T06:24:56.513Z,15.53
2023-04-15T06:27:24.341Z,14.50
2023-04-15T06:29:52.061Z,14.20
2023-04-15T06:32:19.797Z,15.07
2023-04-15T06:34:47.533Z,14.17
2023-04-15T06:37:16.921Z,14.67
2023-04-15T06:39:44.718Z,14.00
2023-04-15T06:42:12.917Z,14.40
2023-04-15T06:44:40.694Z,14.50
2023-04-15T06:47:09.119Z,14.20
2023-04-15T06:49:37.053Z,14.33
2023-04-15T06:52:05.307Z,14.47
2023-04-15T06:54:34.348Z,12.77
2023-04-15T06:57:02.125Z,14.70
2023-04-15T06:59:30.043Z,13.20
2023-04-15T07:01:57.814Z,13.07
2023-04-15T07:04:25.719Z,13.20
2023-04-15T07:06:54.075Z,13.80
2023-04-15T07:09:21.775Z,13.60
2023-04-15T07:11:51.600Z,14.50
2023-04-15T07:14:19.555Z,13.93
2023-04-15T07:16:47.457Z,13.57
2023-04-15T07:19:15.206Z,14.07
2023-04-15T07:21:42.992Z,14.07
2023-04-15T07:24:11.425Z,14.00
2023-04-15T07:26:39.680Z,13.10
2023-04-15T07:29:08.789Z,12.87
2023-04-15T07:31:37.229Z,14.10
2023-04-15T07:34:05.618Z,13.70
2023-04-15T07:36:33.380Z,12.90
2023-04-15T07:39:02.253Z,13.17
2023-04-15T07:41:30.583Z,12.57
2023-04-15T07:43:58.388Z,13.33
2023-04-15T07:46:28.436Z,13.77
2023-04-15T07:48:56.320Z,13.67
2023-04-15T07:51:24.131Z,14.73
2023-04-15T07:53:51.967Z,14.87
2023-04-15T07:56:19.930Z,14.57
2023-04-15T07:58:47.638Z,13.87
2023-04-15T08:01:15.382Z,13.57
2023-04-15T08:03:44.645Z,13.27
2023-04-15T08:06:12.535Z,14.13
2023-04-15T08:08:40.242Z,15.30
2023-04-15T08:11:08.042Z,15.70
2023-04-15T08:13:36.098Z,15.70
2023-04-15T08:16:20.960Z,15.70
2023-04-15T08:18:51.455Z,16.50
2023-04-15T08:21:20.300Z,16.27
2023-04-15T08:23:50.178Z,16.07
2023-04-15T08:26:18.395Z,15.03
2023-04-15T08:28:47.050Z,16.20
2023-04-15T08:31:16.389Z,15.40
2023-04-15T08:33:44.324Z,15.87
2023-04-15T08:36:14.982Z,15.37
2023-04-15T08:38:42.701Z,15.43
2023-04-15T08:41:20.116Z,14.30
2023-04-15T08:43:53.523Z,14.67
2023-04-15T08:46:22.719Z,15.40
2023-04-15T08:48:51.393Z,14.67
2023-04-15T08:51:23.257Z,15.67
2023-04-15T08:53:53.072Z,13.80
2023-04-15T08:56:24.991Z,14.80
2023-04-15T08:58:52.985Z,14.90
2023-04-15T09:01:21.158Z,14.70
2023-04-15T09:03:50.292Z,15.20
2023-04-15T09:06:19.752Z,14.83
2023-04-15T09:08:47.612Z,14.00
2023-04-15T09:11:15.572Z,14.20
2023-04-15T09:13:43.260Z,14.30
2023-04-15T09:16:11.379Z,14.37
2023-04-15T09:18:40.271Z,14.43
2023-04-15T09:21:11.229Z,14.33
2023-04-15T09:23:42.244Z,14.33
2023-04-15T09:26:09.974Z,13.93
2023-04-15T09:28:43.081Z,13.13
2023-04-15T09:31:12.037Z,13.73
2023-04-15T09:33:56.755Z,13.83
2023-04-15T09:36:25.173Z,13.73
2023-04-15T09:38:58.162Z,15.13
2023-04-15T09:41:27.111Z,14.47
2023-04-15T09:43:54.970Z,13.33
2023-04-15T09:46:42.031Z,13.93
2023-04-15T09:49:10.947Z,13.20
2023-04-15T09:51:39.157Z,13.87
2023-04-15T09:54:08.310Z,13.33
2023-04-15T09:56:37.854Z,14.13
2023-04-15T09:59:06.958Z,13.53
2023-04-15T10:01:34.968Z,13.00
2023-04-15T10:04:05.321Z,13.17
2023-04-15T10:06:34.706Z,12.77
2023-04-15T10:09:03.315Z,13.07
2023-04-15T10:11:34.531Z,12.20
2023-04-15T10:14:03.153Z,13.10
2023-04-15T10:16:34.184Z,12.47
2023-04-15T10:19:04.431Z,12.30
2023-04-15T10:21:32.266Z,12.73
2023-04-15T10:24:01.845Z,13.67
2023-04-15T10:26:30.989Z,12.60
2023-04-15T10:29:01.268Z,12.30
2023-04-15T10:31:29.568Z,12.07
2023-04-15T10:33:58.071Z,11.93
2023-04-15T10:36:26.288Z,12.13
2023-04-15T10:38:54.053Z,11.13
2023-04-15T10:41:23.367Z,10.90
2023-04-15T10:43:53.075Z,11.43
2023-04-15T10:46:37.851Z,10.30
2023-04-15T10:49:11.004Z,11.53
2023-04-15T10:51:41.693Z,10.60
2023-04-15T10:54:14.428Z,10.30
2023-04-15T10:56:44.057Z,12.03
2023-04-15T10:59:12.075Z,11.70
2023-04-15T11:01:54.439Z,11.07
2023-04-15T11:04:54.229Z,11.00
2023-04-15T11:07:43.689Z,10.93
2023-04-15T11:10:54.799Z,11.20
2023-04-15T11:13:25.822Z,10.70
2023-04-15T11:15:59.147Z,10.73
2023-04-15T11:18:30.536Z,11.13
2023-04-15T11:20:59.696Z,10.37
2023-04-15T11:23:33.329Z,10.67
2023-04-15T11:26:05.466Z,11.53
2023-04-15T11:28:33.994Z,11.83
2023-04-15T11:31:08.558Z,12.73
2023-04-15T11:33:37.919Z,12.73
2023-04-15T11:36:06.034Z,13.90
2023-04-15T11:38:35.682Z,13.83
2023-04-15T11:41:03.455Z,13.07
2023-04-15T11:43:35.358Z,14.00
2023-04-15T11:46:04.827Z,13.57
2023-04-15T11:48:33.939Z,13.53
2023-04-15T11:51:04.760Z,12.17
2023-04-15T11:53:40.991Z,12.40
2023-04-15T11:56:10.841Z,12.50
2023-04-15T11:58:39.560Z,13.63
2023-04-15T12:01:08.260Z,12.83
2023-04-15T12:03:40.497Z,12.60
2023-04-15T12:06:19.370Z,12.27
2023-04-15T12:09:09.396Z,11.93
2023-04-15T12:11:40.060Z,11.37
2023-04-15T12:14:10.758Z,11.10
2023-04-15T12:16:48.618Z,10.77
2023-04-15T12:19:20.357Z,9.77
2023-04-15T12:21:50.400Z,9.23
2023-04-15T12:24:22.632Z,9.77
2023-04-15T12:26:52.498Z,8.60
2023-04-15T12:29:21.235Z,9.17
2023-04-15T12:31:54.027Z,9.43
2023-04-15T12:34:29.521Z,9.00
2023-04-15T12:37:00.827Z,8.63
2023-04-15T12:39:31.430Z,8.07
2023-04-15T12:42:00.356Z,9.17
2023-04-15T12:44:29.049Z,8.73
2023-04-15T12:46:57.105Z,9.00
2023-04-15T12:49:25.630Z,9.47
2023-04-15T12:51:56.479Z,9.63
2023-04-15T12:54:25.568Z,9.77
2023-04-15T12:56:54.200Z,8.87
2023-04-15T12:59:23.812Z,9.60
2023-04-15T13:01:53.442Z,9.57
2023-04-15T13:04:22.162Z,9.27
2023-04-15T13:06:50.420Z,10.30
2023-04-15T13:09:18.344Z,9.17
2023-04-15T13:11:47.518Z,10.37
2023-04-15T13:14:15.813Z,9.13
2023-04-15T13:16:43.648Z,9.33
2023-04-15T13:19:11.403Z,9.13
2023-04-15T13:21:39.281Z,8.40
2023-04-15T13:24:08.151Z,8.53
2023-04-15T13:26:36.305Z,8.90
2023-04-15T13:29:05.501Z,8.77
2023-04-15T13:31:33.349Z,9.10
2023-04-15T13:34:01.197Z,8.93
2023-04-15T13:36:29.029Z,9.37
2023-04-15T13:38:57.035Z,9.00
2023-04-15T13:41:24.853Z,9.00
2023-04-15T13:43:52.662Z,9.10
2023-04-15T13:46:22.202Z,9.18
2023-04-15T13:48:50.246Z,9.30
2023-04-15T13:51:18.117Z,9.83
2023-04-15T13:53:45.920Z,9.90
2023-04-15T13:56:13.719Z,9.83
2023-04-15T13:58:42.016Z,9.80
2023-04-15T14:01:09.889Z,9.43
2023-04-15T14:03:39.518Z,9.83
2023-04-15T14:06:08.063Z,10.50
2023-04-15T14:08:35.912Z,10.03
2023-04-15T14:11:03.886Z,10.00
2023-04-15T14:13:31.674Z,9.70
2023-04-15T14:15:59.646Z,10.13
2023-04-15T14:18:27.464Z,10.43
2023-04-15T14:20:56.735Z,10.63
2023-04-15T14:23:24.457Z,10.30
2023-04-15T14:25:52.689Z,10.75
2023-04-15T14:28:20.432Z,11.37
2023-04-15T14:30:48.330Z,11.35
2023-04-15T14:33:16.292Z,11.90
2023-04-15T14:35:44.266Z,11.52
2023-04-15T14:38:13.349Z,11.82
2023-04-15T14:40:42.662Z,11.80
2023-04-15T14:43:10.507Z,12.93
2023-04-15T14:45:41.862Z,10.85
2023-04-15T14:48:12.717Z,11.63
2023-04-15T14:50:41.166Z,12.17
2023-04-15T14:53:08.975Z,11.87
2023-04-15T14:55:38.036Z,12.33
2023-04-15T14:58:06.069Z,12.47
2023-04-15T15:00:33.971Z,12.53
2023-04-15T15:03:01.966Z,12.73
2023-04-15T15:05:29.944Z,11.20
2023-04-15T15:07:57.807Z,11.03
2023-04-15T15:10:32.759Z,11.20
2023-04-15T15:13:14.771Z,12.53
2023-04-15T15:15:43.118Z,11.60
2023-04-15T15:18:11.679Z,12.17
2023-04-15T15:20:39.486Z,13.10
2023-04-15T15:23:07.336Z,12.17
2023-04-15T15:25:35.242Z,12.27
2023-04-15T15:28:03.122Z,12.53
2023-04-15T15:30:32.245Z,12.27
2023-04-15T15:33:00.051Z,12.30
2023-04-15T15:35:28.007Z,12.87
2023-04-15T15:37:55.975Z,13.70
2023-04-15T15:40:23.931Z,12.73
2023-04-15T15:42:51.774Z,12.97
2023-04-15T15:45:19.776Z,13.27
2023-04-15T15:47:49.175Z,12.40
2023-04-15T15:50:16.941Z,12.27
2023-04-15T15:52:44.708Z,13.07
2023-04-15T15:55:12.585Z,12.93
2023-04-15T15:57:40.452Z,13.00
2023-04-15T16:00:12.443Z,11.43
2023-04-15T16:03:05.068Z,11.93
2023-04-15T16:05:29.543Z,12.77
2023-04-15T16:07:57.505Z,12.13
2023-04-15T16:10:25.397Z,11.90
2023-04-15T16:12:53.199Z,13.07
2023-04-15T16:15:21.380Z,12.47
2023-04-15T16:17:49.264Z,12.27
2023-04-15T16:20:17.426Z,12.43
2023-04-15T16:22:46.667Z,11.63
2023-04-15T16:25:14.787Z,11.57
2023-04-15T16:27:54.702Z,10.60
2023-04-15T16:30:27.078Z,11.10
2023-04-15T16:32:54.885Z,11.80
2023-04-15T16:35:22.779Z,11.07
2023-04-15T16:37:51.985Z,11.27
2023-04-15T16:40:19.979Z,12.27
2023-04-15T16:42:47.856Z,12.23
2023-04-15T16:45:16.066Z,11.57
2023-04-15T16:47:44.108Z,12.20
2023-04-15T16:50:12.484Z,11.63
2023-04-15T16:52:40.255Z,11.83
2023-04-15T16:55:09.766Z,11.50
2023-04-15T16:58:00.482Z,11.60
2023-04-15T17:00:25.433Z,10.23
2023-04-15T17:02:53.308Z,10.93
2023-04-15T17:05:21.609Z,11.60
2023-04-15T17:07:49.625Z,12.30
2023-04-15T17:10:19.268Z,11.10
2023-04-15T17:12:47.147Z,11.67
2023-04-15T17:15:14.994Z,10.43
2023-04-15T17:17:42.780Z,11.57
2023-04-15T17:20:12.242Z,11.37
2023-04-15T17:22:40.052Z,9.90
2023-04-15T17:25:08.922Z,10.67
2023-04-15T17:27:38.933Z,10.97
2023-04-15T17:30:08.090Z,9.63
2023-04-15T17:32:35.973Z,10.17
2023-04-15T17:35:06.526Z,10.50
2023-04-15T17:37:34.769Z,9.90
2023-04-15T17:40:03.124Z,10.67
2023-04-15T17:42:30.854Z,11.07
2023-04-15T17:45:00.182Z,10.80
2023-04-15T17:47:28.865Z,9.80
2023-04-15T17:49:56.738Z,11.03
2023-04-15T17:52:24.453Z,10.37
2023-04-15T17:54:52.212Z,11.30
2023-04-15T17:57:19.957Z,11.80
2023-04-15T17:59:48.729Z,12.13
2023-04-15T18:02:18.521Z,11.90
2023-04-15T18:04:46.608Z,12.70
2023-04-15T18:07:15.352Z,12.90
2023-04-15T18:09:44.284Z,13.17
2023-04-15T18:12:12.244Z,12.60
2023-04-15T18:14:40.165Z,13.13
2023-04-15T18:17:08.523Z,12.57
2023-04-15T18:19:37.624Z,13.20
2023-04-15T18:22:05.540Z,12.07
2023-04-15T18:24:33.744Z,12.07
2023-04-15T18:27:01.746Z,11.17
2023-04-15T18:29:31.168Z,12.33
2023-04-15T18:32:00.070Z,11.50
2023-04-15T18:34:28.119Z,10.67
2023-04-15T18:36:58.991Z,10.47
2023-04-15T18:39:27.225Z,10.67
2023-04-15T18:41:56.016Z,10.50
2023-04-15T18:44:24.081Z,10.80
2023-04-15T18:46:51.844Z,11.03
2023-04-15T18:49:19.576Z,11.33
2023-04-15T18:51:47.417Z,11.80
2023-04-15T18:54:16.619Z,11.93
2023-04-15T18:56:44.628Z,12.23
2023-04-15T18:59:29.624Z,12.03
2023-04-15T19:01:58.774Z,12.03
2023-04-15T19:04:28.828Z,12.03
2023-04-15T19:06:57.159Z,12.77
2023-04-15T19:09:26.340Z,12.57
2023-04-15T19:11:54.128Z,13.30
2023-04-15T19:14:22.228Z,12.80
2023-04-15T19:16:50.057Z,13.37
2023-04-15T19:19:17.860Z,12.87
2023-04-15T19:21:47.499Z,13.10
2023-04-15T19:24:15.372Z,12.83
2023-04-15T19:26:44.921Z,13.73
2023-04-15T19:29:12.716Z,12.77
2023-04-15T19:31:40.685Z,13.73
2023-04-15T19:34:08.384Z,14.67
2023-04-15T19:36:36.188Z,14.97
2023-04-15T19:39:04.373Z,14.67
2023-04-15T19:41:32.360Z,14.70
2023-04-15T19:44:03.075Z,15.53
2023-04-15T19:46:31.208Z,15.10
2023-04-15T19:48:59.129Z,15.83
2023-04-15T19:51:28.493Z,16.33
2023-04-15T19:53:56.896Z,16.77
2023-04-15T19:56:25.603Z,17.07
2023-04-15T19:58:53.961Z,16.50
2023-04-15T20:01:23.858Z,17.03
2023-04-15T20:03:53.955Z,17.67
2023-04-15T20:06:22.650Z,16.03
2023-04-15T20:08:50.849Z,18.63
2023-04-15T20:11:18.656Z,17.23
2023-04-15T20:13:46.522Z,17.33
2023-04-15T20:16:14.452Z,17.10
2023-04-15T20:18:43.581Z,17.70
2023-04-15T20:21:11.375Z,17.57
2023-04-15T20:23:39.214Z,17.87
2023-04-15T20:26:07.117Z,17.07
2023-04-15T20:28:36.385Z,16.10
2023-04-15T20:31:04.483Z,19.80
2023-04-15T20:33:32.246Z,15.63
2023-04-15T20:36:01.349Z,14.87
2023-04-15T20:38:29.106Z,13.90
2023-04-15T20:40:57.797Z,13.90
2023-04-15T20:43:26.157Z,9.77
2023-04-15T20:45:54.587Z,7.63
2023-04-15T20:48:22.748Z,8.00
2023-04-15T20:50:50.962Z,7.17
2023-04-15T20:53:20.075Z,7.13
2023-04-15T20:55:47.830Z,7.10
2023-04-15T20:58:15.661Z,7.17
2023-04-15T21:00:45.268Z,7.70
2023-04-15T21:03:13.363Z,7.07
2023-04-15T21:05:41.500Z,7.40
2023-04-15T21:08:09.331Z,6.40
2023-04-15T21:10:40.099Z,6.47
2023-04-15T21:13:07.994Z,7.30
2023-04-15T21:15:36.055Z,7.00
2023-04-15T21:18:03.947Z,6.47
2023-04-15T21:20:31.678Z,6.70
2023-04-15T21:22:59.408Z,7.43
2023-04-15T21:25:27.164Z,7.77
2023-04-15T21:27:56.314Z,7.43
2023-04-15T21:30:25.540Z,7.33
2023-04-15T21:32:53.332Z,7.80
2023-04-15T21:35:21.140Z,7.47
2023-04-15T21:37:48.921Z,7.80
2023-04-15T21:40:18.547Z,7.93
2023-04-15T21:42:47.476Z,6.93
2023-04-15T21:45:16.935Z,8.07
2023-04-15T21:48:05.845Z,7.23
2023-04-15T21:50:32.755Z,6.97
2023-04-15T21:53:00.537Z,6.73
2023-04-15T21:55:28.364Z,6.73
2023-04-15T21:57:56.343Z,6.83
2023-04-15T22:00:25.598Z,7.30
2023-04-15T22:02:53.710Z,6.40
2023-04-15T22:05:21.595Z,6.47
2023-04-15T22:07:49.373Z,6.50
2023-04-15T22:10:17.131Z,6.40
2023-04-15T22:12:44.861Z,7.23
2023-04-15T22:15:12.754Z,7.10
2023-04-15T22:17:41.854Z,7.97
2023-04-15T22:20:10.684Z,6.80
2023-04-15T22:22:44.248Z,6.67
2023-04-15T22:25:12.665Z,7.90
2023-04-15T22:27:40.450Z,8.37
2023-04-15T22:30:09.569Z,9.27
2023-04-15T22:32:37.350Z,8.10
2023-04-15T22:35:07.006Z,7.60
2023-04-15T22:37:34.771Z,7.77
2023-04-15T22:40:02.874Z,7.50
2023-04-15T22:42:30.566Z,7.20
2023-04-15T22:44:58.315Z,7.27
2023-04-15T22:47:26.305Z,8.47
2023-04-15T22:49:54.196Z,8.93
2023-04-15T22:52:30.130Z,9.10
2023-04-15T22:54:58.680Z,8.30
2023-04-15T22:57:27.854Z,8.40
2023-04-15T22:59:55.700Z,8.40
2023-04-15T23:02:23.605Z,8.83
2023-04-15T23:04:51.511Z,8.43
2023-04-15T23:07:19.267Z,8.33
2023-04-15T23:09:48.330Z,8.60
2023-04-15T23:12:16.106Z,8.07
2023-04-15T23:14:43.846Z,8.03
2023-04-15T23:17:11.613Z,8.70
2023-04-15T23:19:39.340Z,9.37
2023-04-15T23:22:10.460Z,8.10
2023-04-15T23:24:38.499Z,7.70
2023-04-15T23:27:07.548Z,8.10
2023-04-15T23:29:36.041Z,9.37
2023-04-15T23:32:04.255Z,8.17
2023-04-15T23:34:32.031Z,8.60
2023-04-15T23:36:59.782Z,8.33
2023-04-15T23:39:27.518Z,8.17
2023-04-15T23:41:56.294Z,8.53
2023-04-15T23:44:25.427Z,8.37
2023-04-15T23:46:53.246Z,9.03
2023-04-15T23:49:21.049Z,9.03
2023-04-15T23:51:48.829Z,8.30
2023-04-15T23:54:16.573Z,9.43
2023-04-15T23:56:44.293Z,8.20
2023-04-15T23:59:12.071Z,8.20
